sensor_id;sensor_type;location;lat;lon;timestamp;temperature;humidity
41678;DHT22;27364;49.026;8.712;2022-12-31T00:00:46;14.10;99.90
41678;DHT22;27364;49.026;8.712;2022-12-31T00:03:12;14.20;99.90
41678;DHT22;27364;49.026;8.712;2022-12-31T00:05:37;14.10;99.90
41678;DHT22;27364;49.026;8.712;2022-12-31T00:08:03;14.30;99.90
41678;DHT22;27364;49.026;8.712;2022-12-31T00:10:29;14.40;99.90
41678;DHT22;27364;49.026;8.712;2022-12-31T00:12:54;14.40;99.90
41678;DHT22;27364;49.026;8.712;2022-12-31T00:15:20;14.40;99.90
41678;DHT22;27364;49.026;8.712;2022-12-31T00:17:45;14.50;99.90
41678;DHT22;27364;49.026;8.712;2022-12-31T00:20:11;14.50;99.90
41678;DHT22;27364;49.026;8.712;2022-12-31T00:22:36;14.70;99.90
41678;DHT22;27364;49.026;8.712;2022-12-31T00:25:02;14.70;99.90
41678;DHT22;27364;49.026;8.712;2022-12-31T00:27:32;14.70;99.90
41678;DHT22;27364;49.026;8.712;2022-12-31T00:29:57;14.70;99.90
41678;DHT22;27364;49.026;8.712;2022-12-31T00:32:23;14.70;99.90
41678;DHT22;27364;49.026;8.712;2022-12-31T00:34:48;14.70;99.90
41678;DHT22;27364;49.026;8.712;2022-12-31T00:37:14;14.80;99.90
41678;DHT22;27364;49.026;8.712;2022-12-31T00:39:39;14.90;99.90
41678;DHT22;27364;49.026;8.712;2022-12-31T00:42:05;14.90;99.90
41678;DHT22;27364;49.026;8.712;2022-12-31T00:44:30;14.90;99.90
41678;DHT22;27364;49.026;8.712;2022-12-31T00:46:56;14.80;99.90
41678;DHT22;27364;49.026;8.712;2022-12-31T00:49:22;14.80;99.90
41678;DHT22;27364;49.026;8.712;2022-12-31T00:51:48;14.70;99.90
41678;DHT22;27364;49.026;8.712;2022-12-31T00:54:13;14.70;99.90
41678;DHT22;27364;49.026;8.712;2022-12-31T00:56:39;14.80;99.90
41678;DHT22;27364;49.026;8.712;2022-12-31T00:59:05;14.70;99.90
41678;DHT22;27364;49.026;8.712;2022-12-31T01:01:34;14.70;99.90
41678;DHT22;27364;49.026;8.712;2022-12-31T01:04:03;14.70;99.90
41678;DHT22;27364;49.026;8.712;2022-12-31T01:06:30;14.70;99.90
41678;DHT22;27364;49.026;8.712;2022-12-31T01:08:55;14.70;99.90
41678;DHT22;27364;49.026;8.712;2022-12-31T01:11:21;14.70;99.90
41678;DHT22;27364;49.026;8.712;2022-12-31T01:13:56;14.80;99.90
41678;DHT22;27364;49.026;8.712;2022-12-31T01:16:37;14.80;99.90
41678;DHT22;27364;49.026;8.712;2022-12-31T01:19:07;14.80;99.90
41678;DHT22;27364;49.026;8.712;2022-12-31T01:21:34;14.90;99.90
41678;DHT22;27364;49.026;8.712;2022-12-31T01:23:59;15.00;99.90
41678;DHT22;27364;49.026;8.712;2022-12-31T01:26:25;15.00;99.90
41678;DHT22;27364;49.026;8.712;2022-12-31T01:28:51;14.90;99.90
41678;DHT22;27364;49.026;8.712;2022-12-31T01:31:18;14.90;99.90
41678;DHT22;27364;49.026;8.712;2022-12-31T01:33:45;14.80;99.90
41678;DHT22;27364;49.026;8.712;2022-12-31T01:36:16;14.80;99.90
41678;DHT22;27364;49.026;8.712;2022-12-31T01:38:42;14.90;99.90
41678;DHT22;27364;49.026;8.712;2022-12-31T01:41:16;14.90;99.90
41678;DHT22;27364;49.026;8.712;2022-12-31T01:49:01;14.90;99.90
41678;DHT22;27364;49.026;8.712;2022-12-31T01:51:30;14.90;99.90
41678;DHT22;27364;49.026;8.712;2022-12-31T01:53:58;14.80;99.90
41678;DHT22;27364;49.026;8.712;2022-12-31T01:56:24;14.90;99.90
41678;DHT22;27364;49.026;8.712;2022-12-31T01:58:52;14.80;99.90
41678;DHT22;27364;49.026;8.712;2022-12-31T02:01:28;14.90;99.90
41678;DHT22;27364;49.026;8.712;2022-12-31T02:03:55;14.90;99.90
41678;DHT22;27364;49.026;8.712;2022-12-31T02:06:43;14.90;99.90
41678;DHT22;27364;49.026;8.712;2022-12-31T02:09:10;15.10;99.90
41678;DHT22;27364;49.026;8.712;2022-12-31T02:11:36;15.10;99.90
41678;DHT22;27364;49.026;8.712;2022-12-31T02:14:29;15.10;99.90
41678;DHT22;27364;49.026;8.712;2022-12-31T02:31:12;15.30;99.90
41678;DHT22;27364;49.026;8.712;2022-12-31T02:33:46;15.40;99.90
41678;DHT22;27364;49.026;8.712;2022-12-31T02:36:19;15.40;99.90
41678;DHT22;27364;49.026;8.712;2022-12-31T02:38:47;15.30;99.90
41678;DHT22;27364;49.026;8.712;2022-12-31T02:41:16;15.50;99.90
41678;DHT22;27364;49.026;8.712;2022-12-31T02:44:18;15.40;99.90
41678;DHT22;27364;49.026;8.712;2022-12-31T02:49:24;15.50;99.90
41678;DHT22;27364;49.026;8.712;2022-12-31T02:52:07;15.40;99.90
41678;DHT22;27364;49.026;8.712;2022-12-31T02:58:07;15.50;99.90
41678;DHT22;27364;49.026;8.712;2022-12-31T03:00:40;15.60;99.90
41678;DHT22;27364;49.026;8.712;2022-12-31T03:03:26;15.50;99.90
41678;DHT22;27364;49.026;8.712;2022-12-31T03:05:52;15.50;99.90
41678;DHT22;27364;49.026;8.712;2022-12-31T03:08:21;15.50;99.90
41678;DHT22;27364;49.026;8.712;2022-12-31T03:10:47;15.50;99.90
41678;DHT22;27364;49.026;8.712;2022-12-31T03:13:12;15.40;99.90
41678;DHT22;27364;49.026;8.712;2022-12-31T03:15:38;15.40;99.90
41678;DHT22;27364;49.026;8.712;2022-12-31T03:18:14;15.70;99.90
41678;DHT22;27364;49.026;8.712;2022-12-31T03:20:49;15.60;99.90
41678;DHT22;27364;49.026;8.712;2022-12-31T03:23:37;15.70;99.90
41678;DHT22;27364;49.026;8.712;2022-12-31T03:26:04;15.60;99.90
41678;DHT22;27364;49.026;8.712;2022-12-31T03:28:38;15.60;99.90
41678;DHT22;27364;49.026;8.712;2022-12-31T03:31:04;15.60;99.90
41678;DHT22;27364;49.026;8.712;2022-12-31T03:33:32;15.60;99.90
41678;DHT22;27364;49.026;8.712;2022-12-31T03:35:58;15.50;99.90
41678;DHT22;27364;49.026;8.712;2022-12-31T03:38:23;15.50;99.90
41678;DHT22;27364;49.026;8.712;2022-12-31T03:40:51;15.60;99.90
41678;DHT22;27364;49.026;8.712;2022-12-31T03:43:17;15.70;99.90
41678;DHT22;27364;49.026;8.712;2022-12-31T03:45:52;15.70;99.90
41678;DHT22;27364;49.026;8.712;2022-12-31T03:48:19;15.80;99.90
41678;DHT22;27364;49.026;8.712;2022-12-31T03:50:45;15.90;99.90
41678;DHT22;27364;49.026;8.712;2022-12-31T03:53:11;15.90;99.90
41678;DHT22;27364;49.026;8.712;2022-12-31T03:55:36;16.00;99.90
41678;DHT22;27364;49.026;8.712;2022-12-31T03:58:02;15.90;99.90
41678;DHT22;27364;49.026;8.712;2022-12-31T04:00:28;15.90;99.90
41678;DHT22;27364;49.026;8.712;2022-12-31T04:02:53;16.00;99.90
41678;DHT22;27364;49.026;8.712;2022-12-31T04:05:20;16.00;99.90
41678;DHT22;27364;49.026;8.712;2022-12-31T04:07:46;16.00;99.90
41678;DHT22;27364;49.026;8.712;2022-12-31T04:10:13;16.00;99.90
41678;DHT22;27364;49.026;8.712;2022-12-31T04:12:39;15.90;99.90
41678;DHT22;27364;49.026;8.712;2022-12-31T04:15:05;15.90;99.90
41678;DHT22;27364;49.026;8.712;2022-12-31T04:17:31;16.00;99.90
41678;DHT22;27364;49.026;8.712;2022-12-31T04:19:57;16.00;99.90
41678;DHT22;27364;49.026;8.712;2022-12-31T04:22:23;16.10;99.90
41678;DHT22;27364;49.026;8.712;2022-12-31T04:24:48;16.10;99.90
41678;DHT22;27364;49.026;8.712;2022-12-31T04:27:14;16.10;99.90
41678;DHT22;27364;49.026;8.712;2022-12-31T04:29:40;16.10;99.90
41678;DHT22;27364;49.026;8.712;2022-12-31T04:32:07;16.00;99.90
41678;DHT22;27364;49.026;8.712;2022-12-31T04:34:33;15.90;99.90
41678;DHT22;27364;49.026;8.712;2022-12-31T04:36:59;16.00;99.90
41678;DHT22;27364;49.026;8.712;2022-12-31T04:39:25;16.10;99.90
41678;DHT22;27364;49.026;8.712;2022-12-31T04:41:51;16.10;99.90
41678;DHT22;27364;49.026;8.712;2022-12-31T04:44:16;16.10;99.90
41678;DHT22;27364;49.026;8.712;2022-12-31T04:46:42;16.10;99.90
41678;DHT22;27364;49.026;8.712;2022-12-31T04:49:08;16.00;99.90
41678;DHT22;27364;49.026;8.712;2022-12-31T04:51:34;15.90;99.90
41678;DHT22;27364;49.026;8.712;2022-12-31T04:54:00;15.90;99.90
41678;DHT22;27364;49.026;8.712;2022-12-31T04:56:26;15.90;99.90
41678;DHT22;27364;49.026;8.712;2022-12-31T04:58:52;16.00;99.90
41678;DHT22;27364;49.026;8.712;2022-12-31T05:01:17;16.00;99.90
41678;DHT22;27364;49.026;8.712;2022-12-31T05:03:43;16.10;99.90
41678;DHT22;27364;49.026;8.712;2022-12-31T05:06:17;16.10;99.90
41678;DHT22;27364;49.026;8.712;2022-12-31T05:08:43;16.10;99.90
41678;DHT22;27364;49.026;8.712;2022-12-31T05:11:09;16.30;99.90
41678;DHT22;27364;49.026;8.712;2022-12-31T05:13:35;16.40;99.90
41678;DHT22;27364;49.026;8.712;2022-12-31T05:16:02;16.40;99.90
41678;DHT22;27364;49.026;8.712;2022-12-31T05:18:28;16.50;99.90
41678;DHT22;27364;49.026;8.712;2022-12-31T05:20:54;16.50;99.90
41678;DHT22;27364;49.026;8.712;2022-12-31T05:23:20;16.50;99.90
41678;DHT22;27364;49.026;8.712;2022-12-31T05:25:46;16.50;99.90
41678;DHT22;27364;49.026;8.712;2022-12-31T05:28:12;16.50;99.90
41678;DHT22;27364;49.026;8.712;2022-12-31T05:30:38;16.50;99.90
41678;DHT22;27364;49.026;8.712;2022-12-31T05:33:03;16.40;99.90
41678;DHT22;27364;49.026;8.712;2022-12-31T05:35:29;16.40;99.90
41678;DHT22;27364;49.026;8.712;2022-12-31T05:37:55;16.40;99.90
41678;DHT22;27364;49.026;8.712;2022-12-31T05:40:20;16.40;99.90
41678;DHT22;27364;49.026;8.712;2022-12-31T05:42:46;16.30;99.90
41678;DHT22;27364;49.026;8.712;2022-12-31T05:45:11;16.10;99.90
41678;DHT22;27364;49.026;8.712;2022-12-31T05:47:38;16.20;99.90
41678;DHT22;27364;49.026;8.712;2022-12-31T05:50:05;16.20;99.90
41678;DHT22;27364;49.026;8.712;2022-12-31T05:52:31;16.10;99.90
41678;DHT22;27364;49.026;8.712;2022-12-31T05:54:56;16.10;99.90
41678;DHT22;27364;49.026;8.712;2022-12-31T05:57:22;16.20;99.90
41678;DHT22;27364;49.026;8.712;2022-12-31T05:59:47;16.10;99.90
41678;DHT22;27364;49.026;8.712;2022-12-31T06:02:13;16.20;99.90
41678;DHT22;27364;49.026;8.712;2022-12-31T06:04:39;16.30;99.90
41678;DHT22;27364;49.026;8.712;2022-12-31T06:07:04;16.30;99.90
41678;DHT22;27364;49.026;8.712;2022-12-31T06:09:30;16.30;99.90
41678;DHT22;27364;49.026;8.712;2022-12-31T06:11:55;16.30;99.90
41678;DHT22;27364;49.026;8.712;2022-12-31T06:14:21;16.30;99.90
41678;DHT22;27364;49.026;8.712;2022-12-31T06:16:46;16.30;99.90
41678;DHT22;27364;49.026;8.712;2022-12-31T06:19:12;16.40;99.90
41678;DHT22;27364;49.026;8.712;2022-12-31T06:21:38;16.40;99.90
41678;DHT22;27364;49.026;8.712;2022-12-31T06:24:03;16.30;99.90
41678;DHT22;27364;49.026;8.712;2022-12-31T06:26:29;16.40;99.90
41678;DHT22;27364;49.026;8.712;2022-12-31T06:28:54;16.30;99.90
41678;DHT22;27364;49.026;8.712;2022-12-31T06:31:20;16.30;99.90
41678;DHT22;27364;49.026;8.712;2022-12-31T06:33:45;16.30;99.90
41678;DHT22;27364;49.026;8.712;2022-12-31T06:36:13;16.20;99.90
41678;DHT22;27364;49.026;8.712;2022-12-31T06:38:41;16.20;99.90
41678;DHT22;27364;49.026;8.712;2022-12-31T06:41:09;16.20;99.90
41678;DHT22;27364;49.026;8.712;2022-12-31T06:43:35;16.20;99.90
41678;DHT22;27364;49.026;8.712;2022-12-31T06:46:01;16.10;99.90
41678;DHT22;27364;49.026;8.712;2022-12-31T06:48:27;16.20;99.90
41678;DHT22;27364;49.026;8.712;2022-12-31T06:50:53;16.10;99.90
41678;DHT22;27364;49.026;8.712;2022-12-31T06:53:19;16.10;99.90
41678;DHT22;27364;49.026;8.712;2022-12-31T06:55:44;16.10;99.90
41678;DHT22;27364;49.026;8.712;2022-12-31T06:58:12;16.20;99.90
41678;DHT22;27364;49.026;8.712;2022-12-31T07:00:40;16.00;99.90
41678;DHT22;27364;49.026;8.712;2022-12-31T07:03:28;16.00;99.90
41678;DHT22;27364;49.026;8.712;2022-12-31T07:06:50;16.00;99.90
41678;DHT22;27364;49.026;8.712;2022-12-31T07:09:12;15.90;99.90
41678;DHT22;27364;49.026;8.712;2022-12-31T07:11:55;15.90;99.90
41678;DHT22;27364;49.026;8.712;2022-12-31T07:17:23;15.90;99.90
41678;DHT22;27364;49.026;8.712;2022-12-31T07:20:09;16.00;99.90
41678;DHT22;27364;49.026;8.712;2022-12-31T07:22:36;16.00;99.90
41678;DHT22;27364;49.026;8.712;2022-12-31T07:25:02;15.90;99.90
41678;DHT22;27364;49.026;8.712;2022-12-31T07:33:07;15.90;99.90
41678;DHT22;27364;49.026;8.712;2022-12-31T07:36:12;16.00;99.90
41678;DHT22;27364;49.026;8.712;2022-12-31T07:38:52;16.10;99.90
41678;DHT22;27364;49.026;8.712;2022-12-31T07:41:40;16.00;99.90
41678;DHT22;27364;49.026;8.712;2022-12-31T07:47:00;16.10;99.90
41678;DHT22;27364;49.026;8.712;2022-12-31T07:49:28;16.10;99.90
41678;DHT22;27364;49.026;8.712;2022-12-31T07:51:54;16.10;99.90
41678;DHT22;27364;49.026;8.712;2022-12-31T07:54:20;16.10;99.90
41678;DHT22;27364;49.026;8.712;2022-12-31T07:56:46;16.30;99.90
41678;DHT22;27364;49.026;8.712;2022-12-31T08:08:04;16.40;99.90
41678;DHT22;27364;49.026;8.712;2022-12-31T08:10:49;16.40;99.90
41678;DHT22;27364;49.026;8.712;2022-12-31T08:13:18;16.40;99.90
41678;DHT22;27364;49.026;8.712;2022-12-31T08:15:43;16.50;99.90
41678;DHT22;27364;49.026;8.712;2022-12-31T08:18:09;16.50;99.90
41678;DHT22;27364;49.026;8.712;2022-12-31T08:20:54;16.40;99.90
41678;DHT22;27364;49.026;8.712;2022-12-31T08:23:31;16.50;99.90
41678;DHT22;27364;49.026;8.712;2022-12-31T08:26:26;16.40;99.90
41678;DHT22;27364;49.026;8.712;2022-12-31T08:34:46;16.70;99.90
41678;DHT22;27364;49.026;8.712;2022-12-31T08:37:22;16.60;99.90
41678;DHT22;27364;49.026;8.712;2022-12-31T08:40:10;16.60;99.90
41678;DHT22;27364;49.026;8.712;2022-12-31T08:43:00;16.70;99.90
41678;DHT22;27364;49.026;8.712;2022-12-31T08:45:35;16.80;99.90
41678;DHT22;27364;49.026;8.712;2022-12-31T08:50:30;16.80;99.90
41678;DHT22;27364;49.026;8.712;2022-12-31T08:52:56;16.80;99.90
41678;DHT22;27364;49.026;8.712;2022-12-31T08:55:22;16.80;99.90
41678;DHT22;27364;49.026;8.712;2022-12-31T09:00:35;16.90;99.90
41678;DHT22;27364;49.026;8.712;2022-12-31T09:03:25;16.90;99.90
41678;DHT22;27364;49.026;8.712;2022-12-31T09:14:48;17.00;99.90
41678;DHT22;27364;49.026;8.712;2022-12-31T09:17:32;17.00;99.90
41678;DHT22;27364;49.026;8.712;2022-12-31T09:20:03;17.10;99.90
41678;DHT22;27364;49.026;8.712;2022-12-31T09:22:29;17.00;99.90
41678;DHT22;27364;49.026;8.712;2022-12-31T09:24:55;17.00;99.90
41678;DHT22;27364;49.026;8.712;2022-12-31T09:27:24;17.00;99.90
41678;DHT22;27364;49.026;8.712;2022-12-31T09:30:00;17.00;99.90
41678;DHT22;27364;49.026;8.712;2022-12-31T09:32:49;17.00;99.90
41678;DHT22;27364;49.026;8.712;2022-12-31T10:00:42;17.20;99.90
41678;DHT22;27364;49.026;8.712;2022-12-31T10:09:36;17.30;99.90
41678;DHT22;27364;49.026;8.712;2022-12-31T10:15:32;17.60;99.90
41678;DHT22;27364;49.026;8.712;2022-12-31T10:18:16;17.60;99.90
41678;DHT22;27364;49.026;8.712;2022-12-31T10:21:00;17.60;99.90
41678;DHT22;27364;49.026;8.712;2022-12-31T10:23:40;17.80;99.90
41678;DHT22;27364;49.026;8.712;2022-12-31T10:29:33;17.80;99.90
41678;DHT22;27364;49.026;8.712;2022-12-31T10:38:05;18.20;99.90
41678;DHT22;27364;49.026;8.712;2022-12-31T11:01:12;18.40;99.90
41678;DHT22;27364;49.026;8.712;2022-12-31T11:12:04;18.40;99.90
41678;DHT22;27364;49.026;8.712;2022-12-31T11:14:45;18.60;99.90
41678;DHT22;27364;49.026;8.712;2022-12-31T11:28:44;19.00;99.90
41678;DHT22;27364;49.026;8.712;2022-12-31T11:31:27;18.90;99.20
41678;DHT22;27364;49.026;8.712;2022-12-31T11:37:02;19.00;99.20
41678;DHT22;27364;49.026;8.712;2022-12-31T11:39:41;19.00;99.20
41678;DHT22;27364;49.026;8.712;2022-12-31T11:44:54;19.00;99.10
41678;DHT22;27364;49.026;8.712;2022-12-31T11:53:46;19.30;97.70
41678;DHT22;27364;49.026;8.712;2022-12-31T11:56:19;19.40;98.20
41678;DHT22;27364;49.026;8.712;2022-12-31T11:58:48;19.40;97.10
41678;DHT22;27364;49.026;8.712;2022-12-31T12:01:46;19.60;96.80
41678;DHT22;27364;49.026;8.712;2022-12-31T12:04:15;19.50;96.60
41678;DHT22;27364;49.026;8.712;2022-12-31T12:06:41;19.60;95.90
41678;DHT22;27364;49.026;8.712;2022-12-31T12:09:13;19.60;95.60
41678;DHT22;27364;49.026;8.712;2022-12-31T12:11:41;19.40;96.10
41678;DHT22;27364;49.026;8.712;2022-12-31T12:14:19;19.40;96.10
41678;DHT22;27364;49.026;8.712;2022-12-31T12:16:44;19.30;96.70
41678;DHT22;27364;49.026;8.712;2022-12-31T12:19:17;19.40;96.00
41678;DHT22;27364;49.026;8.712;2022-12-31T12:21:47;19.40;95.50
41678;DHT22;27364;49.026;8.712;2022-12-31T12:24:23;19.40;95.70
41678;DHT22;27364;49.026;8.712;2022-12-31T12:26:49;19.40;95.90
41678;DHT22;27364;49.026;8.712;2022-12-31T12:29:20;19.40;95.90
41678;DHT22;27364;49.026;8.712;2022-12-31T12:31:58;19.50;94.70
41678;DHT22;27364;49.026;8.712;2022-12-31T12:34:27;19.50;95.10
41678;DHT22;27364;49.026;8.712;2022-12-31T12:36:53;19.40;94.90
41678;DHT22;27364;49.026;8.712;2022-12-31T12:39:26;19.40;94.90
41678;DHT22;27364;49.026;8.712;2022-12-31T12:42:08;19.40;94.10
41678;DHT22;27364;49.026;8.712;2022-12-31T12:44:34;19.40;94.30
41678;DHT22;27364;49.026;8.712;2022-12-31T12:47:02;19.30;95.30
41678;DHT22;27364;49.026;8.712;2022-12-31T12:49:36;19.30;94.60
41678;DHT22;27364;49.026;8.712;2022-12-31T12:52:23;19.30;94.10
41678;DHT22;27364;49.026;8.712;2022-12-31T13:03:00;19.00;94.70
41678;DHT22;27364;49.026;8.712;2022-12-31T13:05:47;18.90;95.10
41678;DHT22;27364;49.026;8.712;2022-12-31T13:11:59;18.80;95.10
41678;DHT22;27364;49.026;8.712;2022-12-31T13:19:33;18.90;93.90
41678;DHT22;27364;49.026;8.712;2022-12-31T13:22:13;18.90;94.50
41678;DHT22;27364;49.026;8.712;2022-12-31T13:27:38;18.80;95.00
41678;DHT22;27364;49.026;8.712;2022-12-31T13:30:20;18.70;93.70
41678;DHT22;27364;49.026;8.712;2022-12-31T13:32:54;18.50;94.60
41678;DHT22;27364;49.026;8.712;2022-12-31T13:35:43;18.50;95.50
41678;DHT22;27364;49.026;8.712;2022-12-31T13:38:17;18.40;94.90
41678;DHT22;27364;49.026;8.712;2022-12-31T13:46:15;18.50;94.80
41678;DHT22;27364;49.026;8.712;2022-12-31T13:48:47;18.50;94.80
41678;DHT22;27364;49.026;8.712;2022-12-31T13:51:33;18.40;95.40
41678;DHT22;27364;49.026;8.712;2022-12-31T13:56:56;18.30;94.90
41678;DHT22;27364;49.026;8.712;2022-12-31T13:59:36;18.40;95.00
41678;DHT22;27364;49.026;8.712;2022-12-31T14:02:26;18.30;95.10
41678;DHT22;27364;49.026;8.712;2022-12-31T14:07:39;18.20;95.10
41678;DHT22;27364;49.026;8.712;2022-12-31T14:10:22;18.10;95.90
41678;DHT22;27364;49.026;8.712;2022-12-31T14:13:01;18.00;95.90
41678;DHT22;27364;49.026;8.712;2022-12-31T14:21:24;17.80;96.20
41678;DHT22;27364;49.026;8.712;2022-12-31T14:26:40;17.60;96.90
41678;DHT22;27364;49.026;8.712;2022-12-31T14:48:31;17.40;97.60
41678;DHT22;27364;49.026;8.712;2022-12-31T14:51:01;17.50;96.90
41678;DHT22;27364;49.026;8.712;2022-12-31T14:53:28;17.60;96.30
41678;DHT22;27364;49.026;8.712;2022-12-31T14:56:05;17.60;96.40
41678;DHT22;27364;49.026;8.712;2022-12-31T14:58:37;17.60;96.30
41678;DHT22;27364;49.026;8.712;2022-12-31T15:01:05;17.60;96.30
41678;DHT22;27364;49.026;8.712;2022-12-31T15:03:37;17.70;96.10
41678;DHT22;27364;49.026;8.712;2022-12-31T15:09:38;17.60;95.60
41678;DHT22;27364;49.026;8.712;2022-12-31T15:12:50;17.60;95.80
41678;DHT22;27364;49.026;8.712;2022-12-31T15:23:19;17.70;94.80
41678;DHT22;27364;49.026;8.712;2022-12-31T15:25:48;17.60;94.40
41678;DHT22;27364;49.026;8.712;2022-12-31T15:28:34;17.50;95.00
41678;DHT22;27364;49.026;8.712;2022-12-31T15:31:23;17.50;95.30
41678;DHT22;27364;49.026;8.712;2022-12-31T15:34:27;17.30;95.50
41678;DHT22;27364;49.026;8.712;2022-12-31T15:36:56;17.40;95.00
41678;DHT22;27364;49.026;8.712;2022-12-31T15:39:39;17.50;95.00
41678;DHT22;27364;49.026;8.712;2022-12-31T15:42:38;17.60;94.10
41678;DHT22;27364;49.026;8.712;2022-12-31T15:45:06;17.80;94.00
41678;DHT22;27364;49.026;8.712;2022-12-31T15:47:42;17.70;93.90
41678;DHT22;27364;49.026;8.712;2022-12-31T15:50:18;17.70;93.80
41678;DHT22;27364;49.026;8.712;2022-12-31T15:52:55;17.60;93.90
41678;DHT22;27364;49.026;8.712;2022-12-31T15:55:37;17.70;93.90
41678;DHT22;27364;49.026;8.712;2022-12-31T15:58:18;17.60;93.90
41678;DHT22;27364;49.026;8.712;2022-12-31T16:01:08;17.60;94.00
41678;DHT22;27364;49.026;8.712;2022-12-31T16:03:34;17.50;93.90
41678;DHT22;27364;49.026;8.712;2022-12-31T16:06:03;17.40;94.10
41678;DHT22;27364;49.026;8.712;2022-12-31T16:08:33;17.50;94.10
41678;DHT22;27364;49.026;8.712;2022-12-31T16:11:01;17.50;94.20
41678;DHT22;27364;49.026;8.712;2022-12-31T16:13:27;17.50;94.00
41678;DHT22;27364;49.026;8.712;2022-12-31T16:16:04;17.40;94.20
41678;DHT22;27364;49.026;8.712;2022-12-31T16:18:38;17.30;94.50
41678;DHT22;27364;49.026;8.712;2022-12-31T16:21:05;17.20;94.40
41678;DHT22;27364;49.026;8.712;2022-12-31T16:23:30;17.10;94.80
41678;DHT22;27364;49.026;8.712;2022-12-31T16:25:59;16.90;95.50
41678;DHT22;27364;49.026;8.712;2022-12-31T16:28:30;16.90;95.80
41678;DHT22;27364;49.026;8.712;2022-12-31T16:31:01;16.80;95.60
41678;DHT22;27364;49.026;8.712;2022-12-31T16:33:27;16.70;96.00
41678;DHT22;27364;49.026;8.712;2022-12-31T16:35:56;16.60;96.50
41678;DHT22;27364;49.026;8.712;2022-12-31T16:38:22;16.60;96.60
41678;DHT22;27364;49.026;8.712;2022-12-31T16:41:15;16.40;97.30
41678;DHT22;27364;49.026;8.712;2022-12-31T16:43:42;16.30;97.80
41678;DHT22;27364;49.026;8.712;2022-12-31T16:46:15;16.20;97.90
41678;DHT22;27364;49.026;8.712;2022-12-31T16:49:02;16.10;98.40
41678;DHT22;27364;49.026;8.712;2022-12-31T16:51:33;16.10;97.40
41678;DHT22;27364;49.026;8.712;2022-12-31T16:54:00;16.30;97.10
41678;DHT22;27364;49.026;8.712;2022-12-31T16:56:32;16.20;97.80
41678;DHT22;27364;49.026;8.712;2022-12-31T16:59:05;16.10;98.80
41678;DHT22;27364;49.026;8.712;2022-12-31T17:01:33;15.90;99.10
41678;DHT22;27364;49.026;8.712;2022-12-31T17:04:03;15.80;99.60
41678;DHT22;27364;49.026;8.712;2022-12-31T17:06:30;15.80;98.60
41678;DHT22;27364;49.026;8.712;2022-12-31T17:16:33;15.80;98.50
41678;DHT22;27364;49.026;8.712;2022-12-31T17:18:59;15.90;98.00
41678;DHT22;27364;49.026;8.712;2022-12-31T17:21:27;16.10;97.50
41678;DHT22;27364;49.026;8.712;2022-12-31T17:24:02;16.20;97.40
41678;DHT22;27364;49.026;8.712;2022-12-31T17:26:33;16.20;97.70
41678;DHT22;27364;49.026;8.712;2022-12-31T17:29:02;16.10;98.40
41678;DHT22;27364;49.026;8.712;2022-12-31T17:31:35;16.20;97.50
41678;DHT22;27364;49.026;8.712;2022-12-31T17:36:39;16.00;98.20
41678;DHT22;27364;49.026;8.712;2022-12-31T17:39:19;15.90;98.80
41678;DHT22;27364;49.026;8.712;2022-12-31T17:41:46;15.70;99.60
41678;DHT22;27364;49.026;8.712;2022-12-31T17:44:24;15.60;99.60
41678;DHT22;27364;49.026;8.712;2022-12-31T17:46:51;15.50;99.80
41678;DHT22;27364;49.026;8.712;2022-12-31T17:49:17;15.50;99.70
41678;DHT22;27364;49.026;8.712;2022-12-31T17:51:46;15.50;99.90
41678;DHT22;27364;49.026;8.712;2022-12-31T17:54:13;15.40;99.90
41678;DHT22;27364;49.026;8.712;2022-12-31T17:56:39;15.30;99.90
41678;DHT22;27364;49.026;8.712;2022-12-31T17:59:05;15.30;99.90
41678;DHT22;27364;49.026;8.712;2022-12-31T18:01:31;15.10;99.90
41678;DHT22;27364;49.026;8.712;2022-12-31T18:03:57;15.00;99.90
41678;DHT22;27364;49.026;8.712;2022-12-31T18:06:22;14.90;99.90
41678;DHT22;27364;49.026;8.712;2022-12-31T18:08:48;14.80;99.90
41678;DHT22;27364;49.026;8.712;2022-12-31T18:11:20;14.60;99.90
41678;DHT22;27364;49.026;8.712;2022-12-31T18:13:46;14.60;99.90
41678;DHT22;27364;49.026;8.712;2022-12-31T18:16:12;14.50;99.90
41678;DHT22;27364;49.026;8.712;2022-12-31T18:18:38;14.40;99.90
41678;DHT22;27364;49.026;8.712;2022-12-31T18:21:12;14.30;99.90
41678;DHT22;27364;49.026;8.712;2022-12-31T18:23:47;14.30;99.90
41678;DHT22;27364;49.026;8.712;2022-12-31T18:26:18;14.20;99.90
41678;DHT22;27364;49.026;8.712;2022-12-31T18:28:45;14.10;99.90
41678;DHT22;27364;49.026;8.712;2022-12-31T18:31:20;14.00;99.90
41678;DHT22;27364;49.026;8.712;2022-12-31T18:33:46;14.00;99.90
41678;DHT22;27364;49.026;8.712;2022-12-31T18:36:13;13.80;99.90
41678;DHT22;27364;49.026;8.712;2022-12-31T18:38:39;13.70;99.90
41678;DHT22;27364;49.026;8.712;2022-12-31T18:41:10;13.70;99.90
41678;DHT22;27364;49.026;8.712;2022-12-31T18:43:39;13.70;99.90
41678;DHT22;27364;49.026;8.712;2022-12-31T18:46:04;13.60;99.90
41678;DHT22;27364;49.026;8.712;2022-12-31T18:48:30;13.50;99.90
41678;DHT22;27364;49.026;8.712;2022-12-31T18:50:55;13.40;99.90
41678;DHT22;27364;49.026;8.712;2022-12-31T18:53:23;13.40;99.90
41678;DHT22;27364;49.026;8.712;2022-12-31T18:55:53;13.30;99.90
41678;DHT22;27364;49.026;8.712;2022-12-31T18:58:19;13.20;99.90
41678;DHT22;27364;49.026;8.712;2022-12-31T19:00:46;13.20;99.90
41678;DHT22;27364;49.026;8.712;2022-12-31T19:03:18;13.10;99.90
41678;DHT22;27364;49.026;8.712;2022-12-31T19:05:44;13.10;99.90
41678;DHT22;27364;49.026;8.712;2022-12-31T19:08:14;13.10;99.90
41678;DHT22;27364;49.026;8.712;2022-12-31T19:10:40;13.00;99.90
41678;DHT22;27364;49.026;8.712;2022-12-31T19:13:07;13.10;99.90
41678;DHT22;27364;49.026;8.712;2022-12-31T19:15:41;13.10;99.90
41678;DHT22;27364;49.026;8.712;2022-12-31T19:18:06;13.00;99.90
41678;DHT22;27364;49.026;8.712;2022-12-31T19:20:34;13.10;99.90
41678;DHT22;27364;49.026;8.712;2022-12-31T19:22:59;13.10;99.90
41678;DHT22;27364;49.026;8.712;2022-12-31T19:25:34;13.00;99.90
41678;DHT22;27364;49.026;8.712;2022-12-31T19:28:00;13.00;99.90
41678;DHT22;27364;49.026;8.712;2022-12-31T19:30:29;12.90;99.90
41678;DHT22;27364;49.026;8.712;2022-12-31T19:32:54;12.90;99.90
41678;DHT22;27364;49.026;8.712;2022-12-31T19:35:20;12.80;99.90
41678;DHT22;27364;49.026;8.712;2022-12-31T19:37:48;12.80;99.90
41678;DHT22;27364;49.026;8.712;2022-12-31T19:40:20;12.80;99.90
41678;DHT22;27364;49.026;8.712;2022-12-31T19:42:47;12.80;99.90
41678;DHT22;27364;49.026;8.712;2022-12-31T19:45:17;12.90;99.90
41678;DHT22;27364;49.026;8.712;2022-12-31T19:47:44;12.90;99.90
41678;DHT22;27364;49.026;8.712;2022-12-31T19:50:16;12.90;99.90
41678;DHT22;27364;49.026;8.712;2022-12-31T19:52:43;13.00;99.90
41678;DHT22;27364;49.026;8.712;2022-12-31T19:55:12;13.00;99.90